Time;durP1;ratioP1;P1;durP2;ratioP2;P2;SDS_P1;SDS_P2;PMS_P1;PMS_P2;Temp;Humidity;BMP_temperature;BMP_pressure;BME280_temperature;BME280_humidity;BME280_pressure;Samples;Min_cycle;Max_cycle;Signal;HPM_P1;HPM_P2
2022/04/13 00:00:42;;;;;;;7.23;4.23;;;7.60;99.90;;;;;;5013845;28;20406;-78
2022/04/13 00:03:08;;;;;;;9.43;4.50;;;7.60;99.90;;;;;;5014064;28;20066;-78
2022/04/13 00:05:33;;;;;;;8.30;4.37;;;7.50;99.90;;;;;;5013701;28;20029;-78
2022/04/13 00:08:00;;;;;;;11.77;4.87;;;7.40;99.90;;;;;;5013721;28;20026;-78
2022/04/13 00:10:26;;;;;;;13.50;4.50;;;7.40;99.90;;;;;;5013634;28;20101;-78
2022/04/13 00:12:51;;;;;;;12.33;4.47;;;7.40;99.90;;;;;;5014153;28;20057;-79
2022/04/13 00:15:17;;;;;;;12.57;3.93;;;7.30;99.90;;;;;;5012311;28;20060;-79
2022/04/13 00:17:43;;;;;;;12.77;4.67;;;7.30;99.90;;;;;;5014324;28;20018;-78
2022/04/13 00:20:09;;;;;;;13.40;4.30;;;7.20;99.90;;;;;;5013579;28;20030;-79
2022/04/13 00:22:35;;;;;;;11.53;4.40;;;7.20;99.90;;;;;;5014183;28;20029;-79
2022/04/13 00:25:00;;;;;;;7.33;4.27;;;7.20;99.90;;;;;;5013535;28;20052;-78
2022/04/13 00:27:26;;;;;;;10.97;4.17;;;7.10;99.90;;;;;;5013993;28;20053;-79
2022/04/13 00:29:52;;;;;;;10.93;3.97;;;7.10;99.90;;;;;;5013671;28;20036;-79
2022/04/13 00:32:17;;;;;;;8.10;4.53;;;7.00;99.90;;;;;;5013348;28;20471;-79
2022/04/13 00:34:43;;;;;;;9.23;4.27;;;7.10;99.90;;;;;;5012218;28;20350;-79
2022/04/13 00:37:09;;;;;;;12.10;4.00;;;7.00;99.90;;;;;;5013700;28;20030;-78
2022/04/13 00:39:34;;;;;;;9.73;4.50;;;7.00;99.90;;;;;;5013376;28;20105;-79
2022/04/13 00:42:04;;;;;;;10.30;4.93;;;6.90;99.90;;;;;;5013844;28;20022;-79
2022/04/13 00:44:30;;;;;;;7.97;4.30;;;6.90;99.90;;;;;;5011981;28;20032;-79
2022/04/13 00:46:57;;;;;;;10.63;4.60;;;6.90;99.90;;;;;;5013264;28;20022;-79
2022/04/13 00:49:24;;;;;;;10.40;4.43;;;6.90;99.90;;;;;;5013397;28;20036;-79
2022/04/13 00:51:50;;;;;;;19.60;4.73;;;6.90;99.90;;;;;;5013515;28;20018;-78
2022/04/13 00:54:19;;;;;;;9.93;4.27;;;6.80;99.90;;;;;;5013731;28;20063;-79
2022/04/13 00:56:52;;;;;;;9.93;4.07;;;6.80;99.90;;;;;;5013239;28;20113;-79
2022/04/13 00:59:18;;;;;;;12.27;4.27;;;6.70;99.90;;;;;;5013584;28;20022;-79
2022/04/13 01:01:49;;;;;;;10.83;3.97;;;6.70;99.90;;;;;;5013295;28;20136;-79
2022/04/13 01:04:16;;;;;;;11.73;3.67;;;6.70;99.90;;;;;;5013188;28;20379;-79
2022/04/13 01:06:43;;;;;;;6.97;3.47;;;6.60;99.90;;;;;;5013415;28;20030;-79
2022/04/13 01:09:11;;;;;;;8.07;4.00;;;6.60;99.90;;;;;;5016653;28;20037;-78
2022/04/13 01:11:37;;;;;;;7.13;4.27;;;6.50;99.90;;;;;;5015405;28;20026;-79
2022/04/13 01:14:02;;;;;;;10.03;3.47;;;6.50;99.90;;;;;;5017169;28;20029;-79
2022/04/13 01:16:28;;;;;;;6.97;4.17;;;6.40;99.90;;;;;;5031889;28;20022;-79
2022/04/13 01:18:55;;;;;;;9.03;3.97;;;6.40;99.90;;;;;;5016925;28;20026;-79
2022/04/13 01:21:40;;;;;;;6.97;4.27;;;6.40;99.90;;;;;;5016566;28;20029;-79
2022/04/13 01:24:06;;;;;;;7.95;3.63;;;6.30;99.90;;;;;;5015302;28;20157;-78
2022/04/13 01:26:31;;;;;;;8.73;4.37;;;6.30;99.90;;;;;;5016618;28;20033;-79
2022/04/13 01:28:57;;;;;;;6.77;3.70;;;6.30;99.90;;;;;;5031582;28;20026;-79
2022/04/13 01:31:22;;;;;;;10.53;3.50;;;6.20;99.90;;;;;;5016319;28;20054;-79
2022/04/13 01:33:48;;;;;;;9.83;3.67;;;6.20;99.90;;;;;;5031583;28;20050;-79
2022/04/13 01:36:13;;;;;;;6.77;3.50;;;6.20;99.90;;;;;;5031597;28;20482;-78
2022/04/13 01:38:39;;;;;;;6.63;3.77;;;6.20;99.90;;;;;;5014985;28;20109;-79
2022/04/13 01:41:04;;;;;;;9.80;3.50;;;6.20;99.90;;;;;;5016379;28;20041;-79
2022/04/13 01:43:30;;;;;;;7.87;3.77;;;6.10;99.90;;;;;;5016202;28;20065;-79
2022/04/13 01:45:57;;;;;;;10.90;3.80;;;6.10;99.90;;;;;;5016087;28;20022;-79
2022/04/13 01:48:23;;;;;;;7.60;3.67;;;6.10;99.90;;;;;;5016049;28;20026;-79
2022/04/13 01:50:49;;;;;;;5.30;3.30;;;6.10;99.90;;;;;;5016575;28;20100;-79
2022/04/13 01:53:15;;;;;;;9.23;3.90;;;6.10;99.90;;;;;;5016002;28;20025;-79
2022/04/13 01:55:41;;;;;;;6.20;3.43;;;6.10;99.90;;;;;;5031340;28;20022;-79
2022/04/13 01:58:06;;;;;;;8.83;3.73;;;6.10;99.90;;;;;;5015898;28;20029;-79
2022/04/13 02:00:32;;;;;;;10.93;4.37;;;6.00;99.90;;;;;;5016632;28;20084;-79
2022/04/13 02:02:58;;;;;;;7.73;4.13;;;6.00;99.90;;;;;;5014639;28;20025;-79
2022/04/13 02:05:25;;;;;;;8.47;4.00;;;6.00;99.90;;;;;;5015935;28;20022;-79
2022/04/13 02:07:51;;;;;;;8.97;3.83;;;5.90;99.90;;;;;;5015625;28;20033;-79
2022/04/13 02:10:17;;;;;;;8.57;4.40;;;5.90;99.90;;;;;;5015531;28;20033;-78
2022/04/13 02:12:44;;;;;;;10.10;4.37;;;5.90;99.90;;;;;;5015687;28;20044;-79
2022/04/13 02:15:10;;;;;;;7.07;3.90;;;5.90;99.90;;;;;;5030698;28;20033;-79
2022/04/13 02:17:37;;;;;;;5.83;3.70;;;5.80;99.90;;;;;;5030635;28;20121;-78
2022/04/13 02:20:04;;;;;;;6.30;3.73;;;5.80;99.90;;;;;;5014789;28;20092;-78
2022/04/13 02:22:34;;;;;;;8.73;3.80;;;5.70;99.90;;;;;;5013972;28;20142;-78
2022/04/13 02:25:01;;;;;;;12.03;4.43;;;5.70;99.90;;;;;;5030697;28;20026;-78
2022/04/13 02:27:27;;;;;;;11.33;4.33;;;5.70;99.90;;;;;;5015204;28;20026;-79
2022/04/13 02:29:53;;;;;;;7.67;4.50;;;5.60;99.90;;;;;;5030397;28;20422;-78
2022/04/13 02:32:18;;;;;;;11.63;5.17;;;5.60;99.90;;;;;;5014943;28;20050;-79
2022/04/13 02:34:45;;;;;;;9.87;4.50;;;5.60;99.90;;;;;;5015323;28;20022;-79
2022/04/13 02:37:11;;;;;;;10.77;4.40;;;5.60;99.90;;;;;;5014991;28;20025;-78
2022/04/13 02:39:37;;;;;;;6.73;4.00;;;5.50;99.90;;;;;;5030234;28;20055;-78
2022/04/13 02:42:03;;;;;;;10.97;4.30;;;5.50;99.90;;;;;;5015533;28;20104;-78
2022/04/13 02:44:28;;;;;;;10.50;4.67;;;5.50;99.90;;;;;;5013555;28;20521;-79
2022/04/13 02:46:54;;;;;;;11.07;4.27;;;5.40;99.90;;;;;;5015077;28;20057;-79
2022/04/13 02:49:19;;;;;;;11.27;4.73;;;5.40;99.90;;;;;;5029973;28;20029;-79
2022/04/13 02:51:45;;;;;;;13.07;4.37;;;5.30;99.90;;;;;;5015262;28;20041;-78
2022/04/13 02:54:10;;;;;;;8.57;4.17;;;5.30;99.90;;;;;;5014631;28;20018;-78
2022/04/13 02:56:36;;;;;;;9.73;4.00;;;5.30;99.90;;;;;;5014728;28;20479;-78
2022/04/13 02:59:01;;;;;;;11.53;4.80;;;5.20;99.90;;;;;;5015009;28;20022;-78
2022/04/13 03:01:27;;;;;;;6.73;4.33;;;5.20;99.90;;;;;;5030466;28;20029;-78
2022/04/13 03:03:52;;;;;;;9.63;4.97;;;5.10;99.90;;;;;;5029990;28;20060;-78
2022/04/13 03:06:18;;;;;;;9.17;4.40;;;5.10;99.90;;;;;;5030053;28;20048;-78
2022/04/13 03:08:45;;;;;;;10.23;4.93;;;5.10;99.90;;;;;;5014657;28;20360;-78
2022/04/13 03:11:11;;;;;;;9.80;4.87;;;5.10;99.90;;;;;;5014395;28;20022;-78
2022/04/13 03:13:37;;;;;;;10.43;5.27;;;5.10;99.90;;;;;;5014538;28;20081;-78
2022/04/13 03:16:03;;;;;;;7.93;5.17;;;5.10;99.90;;;;;;5030346;28;20026;-78
2022/04/13 03:18:28;;;;;;;11.90;5.20;;;5.00;99.90;;;;;;5013605;28;20025;-78
2022/04/13 03:20:54;;;;;;;8.47;4.87;;;5.00;99.90;;;;;;5014761;28;20065;-78
2022/04/13 03:23:20;;;;;;;9.47;5.07;;;5.00;99.90;;;;;;5014358;28;20109;-78
2022/04/13 03:25:45;;;;;;;11.37;5.47;;;5.00;99.90;;;;;;5014244;28;20030;-78
2022/04/13 03:28:11;;;;;;;10.37;4.73;;;4.90;99.90;;;;;;5012932;28;20467;-78
2022/04/13 03:30:36;;;;;;;10.47;4.30;;;4.90;99.90;;;;;;5028690;28;20030;-78
2022/04/13 03:33:02;;;;;;;9.27;4.17;;;4.80;99.90;;;;;;5012791;28;20518;-78
2022/04/13 03:35:28;;;;;;;8.20;4.23;;;4.80;99.90;;;;;;5012771;28;20033;-78
2022/04/13 03:37:53;;;;;;;10.17;4.23;;;4.70;99.90;;;;;;5029560;28;20355;-78
2022/04/13 03:40:19;;;;;;;8.20;4.63;;;4.70;99.90;;;;;;5014326;28;20033;-78
2022/04/13 03:42:45;;;;;;;15.43;4.57;;;4.60;99.90;;;;;;5013922;28;20076;-78
2022/04/13 03:45:12;;;;;;;9.77;4.37;;;4.50;99.90;;;;;;5013922;28;20452;-78
2022/04/13 03:47:41;;;;;;;16.77;5.03;;;4.50;99.90;;;;;;5013928;28;20034;-78
2022/04/13 03:50:08;;;;;;;9.07;4.37;;;4.50;99.90;;;;;;5028894;28;20034;-78
2022/04/13 03:52:35;;;;;;;10.83;5.00;;;4.50;99.90;;;;;;5014084;28;20117;-78
2022/04/13 03:55:04;;;;;;;10.27;4.97;;;4.50;99.90;;;;;;5012369;28;20056;-78
2022/04/13 03:57:30;;;;;;;11.70;4.83;;;4.50;99.90;;;;;;5013707;28;20044;-78
2022/04/13 03:59:56;;;;;;;7.57;4.57;;;4.50;99.90;;;;;;5013715;28;20436;-78
2022/04/13 04:02:21;;;;;;;7.67;4.00;;;4.50;99.90;;;;;;5013558;28;20030;-78
2022/04/13 04:04:47;;;;;;;10.33;5.00;;;4.50;99.90;;;;;;5012362;28;20049;-78
2022/04/13 04:07:13;;;;;;;8.47;4.30;;;4.50;99.90;;;;;;5013573;28;20034;-78
2022/04/13 04:09:38;;;;;;;9.30;4.80;;;4.50;99.90;;;;;;5013381;28;20516;-78
2022/04/13 04:12:04;;;;;;;11.27;4.67;;;4.50;99.90;;;;;;5013637;28;20355;-79
2022/04/13 04:14:30;;;;;;;13.87;4.80;;;4.50;99.90;;;;;;5013899;28;20026;-79
2022/04/13 04:16:56;;;;;;;12.20;6.00;;;4.60;99.90;;;;;;5013760;28;20510;-79
2022/04/13 04:19:22;;;;;;;7.07;4.23;;;4.50;99.90;;;;;;5013731;28;20030;-78
2022/04/13 04:21:47;;;;;;;13.47;5.23;;;4.50;99.90;;;;;;5013841;28;20037;-78
2022/04/13 04:24:13;;;;;;;11.63;4.70;;;4.50;99.90;;;;;;5013484;28;20070;-79
2022/04/13 04:26:39;;;;;;;14.73;5.13;;;4.50;99.90;;;;;;5013748;28;20041;-79
2022/04/13 04:29:05;;;;;;;12.00;4.57;;;4.40;99.90;;;;;;5028645;28;20387;-78
2022/04/13 04:34:14;;;;;;;12.67;5.23;;;4.40;99.90;;;;;;4996033;28;20060;-78
2022/04/13 04:36:40;;;;;;;12.07;6.10;;;4.40;99.90;;;;;;4994031;28;20463;-79
2022/04/13 04:39:07;;;;;;;13.43;6.77;;;4.40;99.90;;;;;;4993810;28;20037;-79
2022/04/13 04:41:32;;;;;;;16.70;7.57;;;4.40;99.90;;;;;;4993964;28;20018;-75
2022/04/13 04:43:58;;;;;;;15.83;7.67;;;4.50;99.90;;;;;;4996041;28;20029;-75
2022/04/13 04:46:24;;;;;;;18.93;9.43;;;4.40;99.90;;;;;;4997837;28;20026;-75
2022/04/13 04:48:49;;;;;;;19.03;10.33;;;4.40;99.90;;;;;;4996252;28;20110;-75
2022/04/13 04:51:15;;;;;;;17.37;10.57;;;4.40;99.90;;;;;;4997389;28;20027;-75
2022/04/13 04:53:41;;;;;;;21.67;10.67;;;4.40;99.90;;;;;;4997493;28;20522;-75
2022/04/13 04:56:07;;;;;;;17.90;9.30;;;4.40;99.90;;;;;;4996084;28;20018;-76
2022/04/13 04:58:33;;;;;;;21.13;8.20;;;4.50;99.90;;;;;;4998200;28;20030;-75
2022/04/13 05:00:59;;;;;;;16.27;7.53;;;4.50;99.90;;;;;;4997439;28;20069;-75
2022/04/13 05:03:24;;;;;;;16.43;6.93;;;4.50;99.90;;;;;;4996315;28;20061;-75
2022/04/13 05:05:50;;;;;;;15.67;6.93;;;4.50;99.90;;;;;;4997224;28;20038;-75
2022/04/13 05:08:15;;;;;;;12.87;6.23;;;4.60;99.90;;;;;;4997245;28;20395;-75
2022/04/13 05:10:42;;;;;;;7.80;5.20;;;4.60;99.90;;;;;;4997156;28;20033;-75
2022/04/13 05:13:08;;;;;;;11.73;5.20;;;4.60;99.90;;;;;;4997079;28;20073;-75
2022/04/13 05:15:34;;;;;;;9.87;4.93;;;4.70;99.90;;;;;;5004418;28;20021;-74
2022/04/13 05:17:59;;;;;;;11.47;5.20;;;4.70;99.90;;;;;;5042959;28;20477;-77
2022/04/13 05:20:25;;;;;;;11.00;5.37;;;4.80;99.90;;;;;;5033989;28;20021;-74
2022/04/13 05:22:51;;;;;;;13.13;5.73;;;4.80;99.90;;;;;;5035765;28;20108;-74
2022/04/13 05:25:17;;;;;;;14.27;5.37;;;4.90;99.90;;;;;;5021429;28;20036;-75
2022/04/13 05:27:44;;;;;;;8.60;4.87;;;5.00;99.90;;;;;;5016174;28;20030;-74
2022/04/13 05:30:13;;;;;;;9.07;4.67;;;5.00;99.90;;;;;;5014651;28;20076;-74
2022/04/13 05:32:57;;;;;;;10.47;4.83;;;5.10;99.90;;;;;;5031238;28;20103;-73
2022/04/13 05:35:24;;;;;;;18.87;4.83;;;5.10;99.90;;;;;;5016600;28;20021;-74
2022/04/13 05:37:50;;;;;;;15.97;5.40;;;5.20;99.90;;;;;;5015651;28;20018;-73
2022/04/13 05:40:15;;;;;;;9.43;5.00;;;5.20;99.90;;;;;;5015778;28;20087;-73
2022/04/13 05:42:41;;;;;;;17.67;6.00;;;5.20;99.90;;;;;;5015792;28;20359;-74
2022/04/13 05:45:08;;;;;;;15.37;5.73;;;5.30;99.90;;;;;;5009022;28;20022;-74
2022/04/13 05:47:34;;;;;;;13.73;6.37;;;5.30;99.90;;;;;;4994680;28;20037;-74
2022/04/13 05:50:00;;;;;;;10.00;5.40;;;5.30;99.90;;;;;;4996170;28;20026;-73
2022/04/13 05:52:26;;;;;;;13.27;5.70;;;5.40;99.90;;;;;;4995969;28;20112;-74
2022/04/13 05:54:52;;;;;;;12.10;4.30;;;5.40;99.90;;;;;;4993543;28;20030;-74
2022/04/13 05:57:17;;;;;;;9.53;4.40;;;5.40;99.90;;;;;;4996090;28;20037;-73
2022/04/13 05:59:43;;;;;;;10.77;4.10;;;5.50;99.90;;;;;;4996011;28;20379;-74
2022/04/13 06:02:08;;;;;;;12.07;4.33;;;5.50;99.90;;;;;;4995823;28;20030;-74
2022/04/13 06:04:34;;;;;;;6.70;4.30;;;5.50;99.90;;;;;;4995797;28;20114;-74
2022/04/13 06:07:00;;;;;;;14.53;4.40;;;5.60;99.90;;;;;;4994358;28;20063;-74
2022/04/13 06:09:26;;;;;;;10.13;4.57;;;5.70;99.90;;;;;;4995558;28;20035;-74
2022/04/13 06:11:52;;;;;;;9.50;4.87;;;5.80;99.90;;;;;;4994647;28;20034;-75
2022/04/13 06:14:18;;;;;;;9.77;4.43;;;5.90;99.90;;;;;;4995563;28;20026;-75
2022/04/13 06:16:44;;;;;;;9.40;4.60;;;6.00;99.90;;;;;;5004338;28;20374;-75
2022/04/13 06:19:09;;;;;;;8.83;4.30;;;6.10;99.90;;;;;;5015520;28;20030;-74
2022/04/13 06:21:35;;;;;;;12.83;4.40;;;6.20;99.90;;;;;;5014840;28;20022;-75
2022/04/13 06:24:00;;;;;;;9.03;4.97;;;6.30;99.90;;;;;;5015068;28;20104;-75
2022/04/13 06:26:26;;;;;;;9.17;4.60;;;6.50;99.90;;;;;;5014856;28;20053;-75
2022/04/13 06:28:52;;;;;;;9.37;5.37;;;6.60;99.90;;;;;;5014576;28;20022;-75
2022/04/13 06:31:18;;;;;;;7.67;4.90;;;6.70;99.90;;;;;;5013798;28;20029;-75
2022/04/13 06:33:44;;;;;;;9.10;4.60;;;6.80;99.90;;;;;;5014571;28;20371;-75
2022/04/13 06:36:10;;;;;;;14.20;5.13;;;7.00;99.90;;;;;;5013533;28;20026;-75
2022/04/13 06:38:40;;;;;;;13.70;5.60;;;7.30;99.90;;;;;;5014917;28;20026;-75
2022/04/13 06:41:08;;;;;;;11.03;5.33;;;7.50;99.90;;;;;;5014716;28;20026;-75
2022/04/13 06:43:34;;;;;;;11.07;5.40;;;7.70;99.90;;;;;;5013676;28;20030;-74
2022/04/13 06:46:00;;;;;;;12.20;5.03;;;7.70;99.90;;;;;;5014989;28;20028;-75
2022/04/13 06:48:26;;;;;;;12.93;5.80;;;7.80;99.90;;;;;;5014666;28;20029;-75
2022/04/13 06:50:51;;;;;;;16.43;5.67;;;7.90;99.90;;;;;;5013155;28;20056;-75
2022/04/13 06:53:18;;;;;;;14.77;6.37;;;8.00;99.90;;;;;;5014378;28;20460;-75
2022/04/13 06:55:45;;;;;;;14.83;6.47;;;8.10;99.90;;;;;;5014474;28;20025;-75
2022/04/13 06:58:10;;;;;;;11.23;5.83;;;8.20;99.90;;;;;;5013146;28;20026;-75
2022/04/13 07:00:36;;;;;;;12.83;6.10;;;8.30;99.90;;;;;;5014471;28;20075;-75
2022/04/13 07:03:02;;;;;;;16.37;6.27;;;8.40;99.90;;;;;;5012877;28;20038;-75
2022/04/13 07:05:28;;;;;;;10.57;5.67;;;8.60;99.90;;;;;;5013011;28;20033;-75
2022/04/13 07:07:55;;;;;;;9.30;5.90;;;8.70;99.90;;;;;;5013407;28;20026;-75
2022/04/13 07:10:21;;;;;;;13.23;7.13;;;8.90;99.90;;;;;;5014402;28;20030;-75
2022/04/13 07:12:46;;;;;;;8.80;5.70;;;9.10;99.90;;;;;;5014540;28;20018;-75
2022/04/13 07:15:16;;;;;;;11.57;6.20;;;9.30;99.90;;;;;;5014152;28;20032;-75
2022/04/13 07:17:42;;;;;;;10.93;5.80;;;9.40;99.90;;;;;;5014151;28;20133;-75
2022/04/13 07:20:09;;;;;;;9.87;5.60;;;9.50;99.90;;;;;;5013101;28;20108;-75
2022/04/13 07:22:48;;;;;;;13.77;6.03;;;9.70;99.90;;;;;;5013792;28;20030;-76
2022/04/13 07:25:15;;;;;;;12.07;6.10;;;10.00;99.90;;;;;;5013353;28;20105;-75
2022/04/13 07:27:41;;;;;;;11.97;7.20;;;10.20;99.90;;;;;;5013081;28;20028;-75
2022/04/13 07:30:07;;;;;;;50.10;27.30;;;10.50;99.90;;;;;;5012994;28;20033;-75
2022/04/13 07:32:33;;;;;;;31.30;17.47;;;10.60;99.90;;;;;;5011978;28;20049;-75
2022/04/13 07:34:59;;;;;;;21.80;11.33;;;10.70;99.90;;;;;;5013740;28;20026;-75
2022/04/13 07:37:25;;;;;;;22.70;12.93;;;10.90;99.90;;;;;;5013511;28;20026;-75
2022/04/13 07:39:52;;;;;;;11.20;6.07;;;11.20;99.90;;;;;;5012729;28;20025;-77
2022/04/13 07:42:26;;;;;;;191.02;92.82;;;11.30;99.90;;;;;;5014918;28;20034;-75
2022/04/13 07:44:52;;;;;;;19.93;11.63;;;11.40;99.90;;;;;;5008832;28;20092;-77
2022/04/13 07:47:19;;;;;;;13.30;7.45;;;11.60;99.90;;;;;;5005414;28;20052;-77
2022/04/13 07:49:45;;;;;;;11.32;7.53;;;11.80;99.90;;;;;;5008397;28;20057;-77
2022/04/13 07:52:11;;;;;;;13.30;7.03;;;11.80;99.90;;;;;;5008790;28;20378;-77
2022/04/13 07:54:37;;;;;;;9.57;5.68;;;11.80;99.90;;;;;;5008018;28;20183;-77
2022/04/13 07:57:02;;;;;;;9.03;6.90;;;12.00;99.90;;;;;;5006336;28;20137;-77
2022/04/13 07:59:29;;;;;;;11.30;6.83;;;12.10;99.90;;;;;;5006721;28;20084;-77
2022/04/13 08:01:54;;;;;;;10.82;5.93;;;12.10;99.90;;;;;;5007326;28;20026;-77
2022/04/13 08:04:20;;;;;;;12.00;5.90;;;12.10;99.90;;;;;;5005902;28;20091;-77
2022/04/13 08:06:46;;;;;;;9.90;6.50;;;12.20;99.90;;;;;;5005989;28;20103;-77
2022/04/13 08:09:12;;;;;;;9.77;6.28;;;12.30;99.90;;;;;;5004081;28;20121;-77
2022/04/13 08:11:37;;;;;;;12.77;6.50;;;12.70;99.90;;;;;;5003082;28;20103;-77
2022/04/13 08:14:03;;;;;;;11.85;5.82;;;12.50;99.90;;;;;;5005020;28;20034;-77
2022/04/13 08:16:28;;;;;;;11.93;5.57;;;12.70;99.90;;;;;;5003609;28;20706;-77
2022/04/13 08:18:54;;;;;;;11.30;6.15;;;12.80;99.90;;;;;;5012276;28;20108;-77
2022/04/13 08:21:19;;;;;;;7.93;5.90;;;12.90;99.90;;;;;;5011707;28;20744;-75
2022/04/13 08:23:45;;;;;;;12.75;6.57;;;13.20;99.90;;;;;;5014107;28;20029;-75
2022/04/13 08:26:11;;;;;;;10.63;6.68;;;13.20;99.90;;;;;;5013842;28;20088;-70
2022/04/13 08:28:36;;;;;;;8.95;6.25;;;13.20;99.90;;;;;;5016908;28;20033;-74
2022/04/13 08:31:04;;;;;;;12.02;6.45;;;13.30;99.90;;;;;;5015418;28;20038;-74
2022/04/13 08:33:32;;;;;;;9.88;5.95;;;13.50;99.90;;;;;;5016656;28;20529;-75
2022/04/13 08:35:58;;;;;;;10.80;5.82;;;13.70;99.90;;;;;;5015253;28;20032;-74
2022/04/13 08:38:23;;;;;;;6.40;4.97;;;13.80;99.90;;;;;;5031755;28;20029;-73
2022/04/13 08:41:00;;;;;;;11.18;6.18;;;14.10;99.90;;;;;;5018792;28;20060;-76
2022/04/13 08:43:38;;;;;;;10.15;6.35;;;14.10;99.90;;;;;;5016324;28;20412;-73
2022/04/13 08:46:08;;;;;;;11.48;6.68;;;14.10;99.90;;;;;;5014785;28;20034;-72
2022/04/13 08:48:37;;;;;;;11.98;5.47;;;14.10;99.90;;;;;;5012318;28;20060;-73
2022/04/13 08:51:06;;;;;;;7.55;5.60;;;14.40;99.90;;;;;;5014831;28;20030;-73
2022/04/13 08:53:32;;;;;;;11.05;5.60;;;14.80;99.90;;;;;;5014865;28;20076;-73
2022/04/13 08:55:59;;;;;;;9.57;5.97;;;14.60;99.90;;;;;;5014461;28;20034;-74
2022/04/13 08:58:30;;;;;;;10.43;6.10;;;14.80;99.90;;;;;;5015497;28;20042;-73
2022/04/13 09:00:59;;;;;;;9.77;6.03;;;15.00;99.90;;;;;;5014915;28;20034;-73
2022/04/13 09:03:46;;;;;;;9.57;5.25;;;15.10;99.90;;;;;;5014141;28;20021;-73
2022/04/13 09:06:13;;;;;;;14.57;6.30;;;15.40;99.90;;;;;;5014924;28;20088;-73
2022/04/13 09:08:52;;;;;;;13.45;5.25;;;15.60;99.90;;;;;;5013422;28;20501;-73
2022/04/13 09:11:22;;;;;;;14.13;5.43;;;15.70;99.90;;;;;;5015453;28;20046;-73
2022/04/13 09:13:51;;;;;;;7.35;4.88;;;16.10;99.90;;;;;;5015421;28;20083;-73
2022/04/13 09:16:17;;;;;;;9.57;5.45;;;16.10;99.90;;;;;;5030490;28;20111;-73
2022/04/13 09:18:43;;;;;;;9.27;5.80;;;16.30;99.90;;;;;;5015222;28;20064;-73
2022/04/13 09:21:12;;;;;;;11.55;5.75;;;16.20;99.90;;;;;;5013722;28;20465;-73
2022/04/13 09:23:38;;;;;;;10.25;5.22;;;16.30;99.90;;;;;;5014768;28;20394;-73
2022/04/13 09:26:04;;;;;;;10.40;4.93;;;17.00;99.90;;;;;;5013910;28;20192;-72
2022/04/13 09:28:30;;;;;;;9.60;5.20;;;17.30;99.90;;;;;;5014335;28;20112;-72
2022/04/13 09:30:56;;;;;;;11.77;5.00;;;17.40;99.90;;;;;;5011338;28;20113;-74
2022/04/13 09:33:23;;;;;;;12.45;5.30;;;17.30;99.90;;;;;;5011413;28;20755;-73
2022/04/13 09:35:49;;;;;;;10.77;5.47;;;17.30;99.90;;;;;;5011166;28;20037;-73
2022/04/13 09:38:16;;;;;;;9.23;4.85;;;18.00;99.90;;;;;;5010019;28;20889;-73
2022/04/13 09:40:42;;;;;;;14.13;5.75;;;18.50;99.90;;;;;;5011514;28;20040;-73
2022/04/13 09:43:16;;;;;;;10.48;5.15;;;18.60;99.90;;;;;;5031128;28;20044;-73
2022/04/13 09:45:43;;;;;;;13.25;5.78;;;19.10;99.90;;;;;;5011496;28;20029;-73
2022/04/13 09:48:20;;;;;;;7.18;4.90;;;18.60;99.90;;;;;;5012610;28;20040;-73
2022/04/13 09:50:47;;;;;;;7.43;5.45;;;19.20;99.90;;;;;;5023004;28;20060;-74
2022/04/13 09:53:14;;;;;;;12.32;5.82;;;19.30;99.90;;;;;;5030870;28;20486;-74
2022/04/13 09:55:42;;;;;;;16.15;6.60;;;19.30;99.90;;;;;;5030944;28;20064;-74
2022/04/13 09:58:30;;;;;;;12.20;6.32;;;19.40;99.90;;;;;;5021548;28;20030;-74
2022/04/13 10:01:06;;;;;;;16.50;7.15;;;19.50;99.90;;;;;;5010873;28;20034;-74
2022/04/13 10:03:31;;;;;;;11.48;6.43;;;19.50;99.90;;;;;;5011126;28;20796;-74
2022/04/13 10:05:58;;;;;;;14.35;6.25;;;20.00;99.90;;;;;;5010185;28;20120;-74
2022/04/13 10:08:30;;;;;;;12.18;6.35;;;19.70;99.90;;;;;;4993526;28;20045;-74
2022/04/13 10:10:57;;;;;;;13.57;7.78;;;19.80;99.90;;;;;;4991890;28;20034;-74
2022/04/13 10:13:42;;;;;;;15.57;7.28;;;20.00;99.90;;;;;;5003709;28;20510;-74
2022/04/13 10:16:10;;;;;;;13.05;7.20;;;19.70;99.90;;;;;;5006473;28;20425;-74
2022/04/13 10:19:00;;;;;;;12.23;6.68;;;19.40;99.90;;;;;;5029505;28;20025;-74
2022/04/13 10:21:46;;;;;;;14.00;6.80;;;20.40;99.90;;;;;;4994559;28;20031;-74
2022/04/13 10:24:27;;;;;;;12.73;7.13;;;20.50;99.90;;;;;;5003897;28;20044;-74
2022/04/13 10:27:19;;;;;;;11.05;7.40;;;20.70;99.50;;;;;;5012802;28;20049;-74
2022/04/13 10:29:49;;;;;;;12.95;7.05;;;21.10;99.00;;;;;;5010654;28;20048;-74
2022/04/13 10:32:18;;;;;;;11.40;7.75;;;21.30;99.30;;;;;;4993216;28;20146;-73
2022/04/13 10:34:45;;;;;;;16.95;7.10;;;21.30;96.90;;;;;;4993002;28;20069;-76
2022/04/13 10:37:13;;;;;;;9.82;7.57;;;21.50;96.60;;;;;;5007438;28;20022;-76
2022/04/13 10:39:41;;;;;;;12.98;7.78;;;21.30;95.50;;;;;;4991812;28;20043;-76
2022/04/13 10:42:08;;;;;;;14.68;8.27;;;21.10;96.60;;;;;;4992565;28;20113;-76
2022/04/13 10:44:48;;;;;;;13.88;8.07;;;20.90;97.50;;;;;;5002584;28;20030;-76
2022/04/13 10:47:18;;;;;;;14.07;8.02;;;21.30;96.50;;;;;;5027053;28;20026;-71
2022/04/13 10:49:56;;;;;;;12.80;8.43;;;21.40;96.30;;;;;;5033833;28;20026;-70
2022/04/13 10:52:34;;;;;;;15.93;8.68;;;21.10;97.40;;;;;;5034634;28;20100;-71
2022/04/13 10:55:10;;;;;;;12.20;8.07;;;21.40;96.20;;;;;;5034266;28;20056;-70
2022/04/13 10:57:45;;;;;;;18.15;9.00;;;21.40;97.00;;;;;;5028146;28;20067;-75
2022/04/13 11:00:11;;;;;;;13.43;7.65;;;21.70;96.90;;;;;;5024669;28;20032;-75
2022/04/13 11:02:52;;;;;;;12.45;7.88;;;21.50;96.70;;;;;;5027479;28;20094;-76
2022/04/13 11:05:17;;;;;;;11.55;8.27;;;22.10;96.30;;;;;;5044612;28;20040;-76
2022/04/13 11:07:44;;;;;;;11.50;8.10;;;21.80;95.30;;;;;;5028535;28;20037;-75
2022/04/13 11:10:20;;;;;;;11.65;7.93;;;22.20;96.00;;;;;;5027108;28;20045;-75
2022/04/13 11:12:46;;;;;;;12.02;7.22;;;22.10;95.90;;;;;;5024405;28;20018;-76
2022/04/13 11:15:12;;;;;;;10.35;8.23;;;22.10;95.80;;;;;;5016810;28;20136;-76
2022/04/13 11:17:42;;;;;;;13.13;7.72;;;22.30;95.60;;;;;;5010079;28;20109;-76
2022/04/13 11:20:19;;;;;;;11.85;8.85;;;22.50;94.00;;;;;;5021155;28;20518;-76
2022/04/13 11:22:45;;;;;;;11.60;7.70;;;22.40;95.10;;;;;;5004211;28;20495;-75
2022/04/13 11:25:31;;;;;;;8.88;7.10;;;22.30;93.80;;;;;;5010852;28;20038;-75
2022/04/13 11:27:57;;;;;;;12.18;7.85;;;22.30;94.70;;;;;;5009152;28;20056;-75
2022/04/13 11:30:22;;;;;;;12.52;6.80;;;22.20;96.10;;;;;;5008951;28;20034;-75
2022/04/13 11:32:49;;;;;;;10.90;7.03;;;22.30;94.40;;;;;;5007546;28;20045;-75
2022/04/13 11:35:26;;;;;;;9.98;6.75;;;22.60;93.50;;;;;;5005103;28;20036;-74
2022/04/13 11:38:06;;;;;;;10.35;7.43;;;22.70;91.90;;;;;;5006979;28;20108;-75
2022/04/13 11:40:32;;;;;;;10.55;7.30;;;22.70;91.80;;;;;;5005895;28;20034;-75
2022/04/13 11:43:03;;;;;;;9.07;6.15;;;22.70;94.00;;;;;;5005693;28;20042;-75
2022/04/13 11:45:30;;;;;;;9.77;6.35;;;22.80;93.90;;;;;;5003321;28;20038;-75
2022/04/13 11:48:00;;;;;;;15.38;7.15;;;22.90;92.60;;;;;;5003732;28;20037;-76
2022/04/13 11:50:35;;;;;;;10.57;6.65;;;23.00;91.80;;;;;;5003859;28;20061;-76
2022/04/13 11:53:12;;;;;;;9.80;7.30;;;22.90;92.30;;;;;;5006951;28;20018;-75
2022/04/13 11:55:40;;;;;;;9.68;7.18;;;22.80;92.70;;;;;;5007296;28;20049;-75
2022/04/13 11:58:08;;;;;;;9.70;6.85;;;22.60;92.30;;;;;;5007040;28;20025;-76
2022/04/13 12:00:44;;;;;;;13.55;7.45;;;22.40;92.40;;;;;;5005785;28;20098;-76
2022/04/13 12:03:15;;;;;;;13.77;7.28;;;22.40;92.70;;;;;;5011206;28;20030;-69
2022/04/13 12:05:42;;;;;;;9.77;7.15;;;22.60;94.00;;;;;;5028559;28;20033;-67
2022/04/13 12:08:18;;;;;;;11.90;8.13;;;22.80;93.20;;;;;;5013442;28;20033;-68
2022/04/13 12:10:49;;;;;;;12.85;7.78;;;23.10;91.80;;;;;;5013566;28;20044;-67
2022/04/13 12:13:15;;;;;;;12.00;8.00;;;23.20;92.30;;;;;;5013059;28;20014;-68
2022/04/13 12:15:52;;;;;;;13.30;8.35;;;23.10;91.10;;;;;;5014671;28;20025;-73
2022/04/13 12:18:19;;;;;;;14.93;7.80;;;23.20;92.10;;;;;;5011791;28;20022;-77
2022/04/13 12:20:48;;;;;;;12.32;7.70;;;23.40;91.50;;;;;;5011197;28;20037;-67
2022/04/13 12:23:34;;;;;;;17.85;7.53;;;23.50;91.00;;;;;;5006735;28;20135;-70
2022/04/13 12:26:03;;;;;;;13.32;7.88;;;23.50;91.50;;;;;;5007212;28;20038;-69
2022/04/13 12:28:29;;;;;;;12.10;7.22;;;23.60;89.80;;;;;;5022143;28;20025;-73
2022/04/13 12:31:04;;;;;;;11.18;7.50;;;23.50;90.50;;;;;;5006287;28;20029;-73
2022/04/13 12:33:30;;;;;;;;;;;23.50;91.00;;;;;;5008038;28;20113;-72
2022/04/13 12:35:58;;;;;;;11.15;7.90;;;23.20;91.20;;;;;;5024728;28;19947;-72
2022/04/13 12:38:36;;;;;;;12.30;8.68;;;23.50;89.60;;;;;;5008708;28;20427;-70
2022/04/13 12:41:13;;;;;;;12.25;8.98;;;23.60;90.00;;;;;;5012133;28;20022;-70
2022/04/13 12:44:00;;;;;;;13.63;8.05;;;23.70;88.40;;;;;;5011089;28;20026;-70
2022/04/13 12:46:28;;;;;;;12.25;8.65;;;23.60;89.10;;;;;;5011313;28;20478;-70
2022/04/13 12:48:56;;;;;;;10.80;8.80;;;23.80;88.60;;;;;;5011353;28;20030;-70
2022/04/13 12:51:23;;;;;;;12.98;8.20;;;23.90;87.50;;;;;;5011133;28;20096;-69